sensor_id;sensor_type;location;lat;lon;timestamp;pressure;altitude;pressure_sealevel;temperature;humidity
15932;BME280;8065;49.520;11.284;2024-01-15T00:01:33;96218.78;;;1.22;68.87
15932;BME280;8065;49.520;11.284;2024-01-15T00:04:02;96219.44;;;1.14;69.36
15932;BME280;8065;49.520;11.284;2024-01-15T00:06:30;96221.13;;;0.91;69.49
15932;BME280;8065;49.520;11.284;2024-01-15T00:08:58;96213.22;;;1.10;69.24
15932;BME280;8065;49.520;11.284;2024-01-15T00:11:27;96204.28;;;0.97;68.96
15932;BME280;8065;49.520;11.284;2024-01-15T00:13:58;96211.28;;;1.02;68.79
15932;BME280;8065;49.520;11.284;2024-01-15T00:16:26;96202.78;;;1.10;68.63
15932;BME280;8065;49.520;11.284;2024-01-15T00:18:54;96202.78;;;1.10;68.90
15932;BME280;8065;49.520;11.284;2024-01-15T00:21:22;96205.75;;;1.03;69.17
15932;BME280;8065;49.520;11.284;2024-01-15T00:23:51;96213.81;;;1.07;68.69
15932;BME280;8065;49.520;11.284;2024-01-15T00:26:19;96216.34;;;1.12;68.60
15932;BME280;8065;49.520;11.284;2024-01-15T00:28:47;96200.47;;;1.22;68.50
15932;BME280;8065;49.520;11.284;2024-01-15T00:31:18;96205.31;;;1.28;68.09
15932;BME280;8065;49.520;11.284;2024-01-15T00:33:47;96200.38;;;1.27;68.18
15932;BME280;8065;49.520;11.284;2024-01-15T00:36:15;96200.69;;;1.39;68.00
15932;BME280;8065;49.520;11.284;2024-01-15T00:38:43;96192.34;;;1.37;67.89
15932;BME280;8065;49.520;11.284;2024-01-15T00:41:12;96182.66;;;1.38;67.90
15932;BME280;8065;49.520;11.284;2024-01-15T00:43:41;96189.25;;;1.35;68.04
15932;BME280;8065;49.520;11.284;2024-01-15T00:46:09;96191.97;;;1.44;68.24
15932;BME280;8065;49.520;11.284;2024-01-15T00:48:40;96193.50;;;1.45;67.83
15932;BME280;8065;49.520;11.284;2024-01-15T00:51:08;96171.50;;;1.46;68.14
15932;BME280;8065;49.520;11.284;2024-01-15T00:53:37;96179.44;;;1.27;68.37
15932;BME280;8065;49.520;11.284;2024-01-15T00:56:05;96187.69;;;1.34;68.04
15932;BME280;8065;49.520;11.284;2024-01-15T00:58:33;96185.47;;;1.41;67.91
15932;BME280;8065;49.520;11.284;2024-01-15T01:01:02;96178.59;;;1.45;67.53
15932;BME280;8065;49.520;11.284;2024-01-15T01:03:30;96175.88;;;1.50;67.62
15932;BME280;8065;49.520;11.284;2024-01-15T01:06:01;96169.97;;;1.45;67.81
15932;BME280;8065;49.520;11.284;2024-01-15T01:08:29;96174.31;;;1.49;67.85
15932;BME280;8065;49.520;11.284;2024-01-15T01:10:58;96189.34;;;1.44;67.67
15932;BME280;8065;49.520;11.284;2024-01-15T01:13:26;96199.53;;;1.45;67.91
15932;BME280;8065;49.520;11.284;2024-01-15T01:15:54;96201.34;;;1.45;67.63
15932;BME280;8065;49.520;11.284;2024-01-15T01:18:23;96190.03;;;1.49;67.70
15932;BME280;8065;49.520;11.284;2024-01-15T01:20:51;96214.16;;;1.46;67.46
15932;BME280;8065;49.520;11.284;2024-01-15T01:23:22;96207.28;;;1.50;67.86
15932;BME280;8065;49.520;11.284;2024-01-15T01:25:50;96198.94;;;1.48;67.85
15932;BME280;8065;49.520;11.284;2024-01-15T01:28:19;96177.72;;;1.50;67.71
15932;BME280;8065;49.520;11.284;2024-01-15T01:30:47;96176.53;;;1.42;67.84
15932;BME280;8065;49.520;11.284;2024-01-15T01:33:15;96189.06;;;1.45;68.00
15932;BME280;8065;49.520;11.284;2024-01-15T01:35:43;96191.66;;;1.45;67.78
15932;BME280;8065;49.520;11.284;2024-01-15T01:38:12;96192.94;;;1.48;67.89
15932;BME280;8065;49.520;11.284;2024-01-15T01:40:43;96189.53;;;1.47;68.13
15932;BME280;8065;49.520;11.284;2024-01-15T01:43:11;96191.56;;;1.50;67.64
15932;BME280;8065;49.520;11.284;2024-01-15T01:45:40;96187.88;;;1.51;68.12
15932;BME280;8065;49.520;11.284;2024-01-15T01:48:08;96177.81;;;1.58;67.64
15932;BME280;8065;49.520;11.284;2024-01-15T01:50:37;96177.03;;;1.44;68.17
15932;BME280;8065;49.520;11.284;2024-01-15T01:53:05;96171.41;;;1.51;68.04
15932;BME280;8065;49.520;11.284;2024-01-15T01:55:36;96167.53;;;1.48;68.44
15932;BME280;8065;49.520;11.284;2024-01-15T01:58:08;96162.97;;;1.40;68.92
15932;BME280;8065;49.520;11.284;2024-01-15T02:00:37;96165.00;;;1.43;69.05
15932;BME280;8065;49.520;11.284;2024-01-15T02:03:06;96162.97;;;1.40;69.08
15932;BME280;8065;49.520;11.284;2024-01-15T02:05:35;96169.56;;;1.38;68.84
15932;BME280;8065;49.520;11.284;2024-01-15T02:08:04;96174.91;;;1.46;69.09
15932;BME280;8065;49.520;11.284;2024-01-15T02:10:32;96164.53;;;1.55;68.86
15932;BME280;8065;49.520;11.284;2024-01-15T02:13:00;96176.25;;;1.57;69.04
15932;BME280;8065;49.520;11.284;2024-01-15T02:15:31;96183.03;;;1.58;69.36
15932;BME280;8065;49.520;11.284;2024-01-15T02:18:01;96170.63;;;1.64;69.36
15932;BME280;8065;49.520;11.284;2024-01-15T02:20:30;96172.19;;;1.65;69.54
15932;BME280;8065;49.520;11.284;2024-01-15T02:23:08;96177.47;;;1.74;69.18
15932;BME280;8065;49.520;11.284;2024-01-15T02:25:38;96177.97;;;1.76;69.24
15932;BME280;8065;49.520;11.284;2024-01-15T02:28:09;96175.03;;;1.77;69.43
15932;BME280;8065;49.520;11.284;2024-01-15T02:30:39;96171.56;;;1.82;69.48
15932;BME280;8065;49.520;11.284;2024-01-15T02:33:08;96167.56;;;1.84;69.36
15932;BME280;8065;49.520;11.284;2024-01-15T02:35:36;96168.34;;;1.85;69.31
15932;BME280;8065;49.520;11.284;2024-01-15T02:38:07;96168.25;;;1.90;69.48
15932;BME280;8065;49.520;11.284;2024-01-15T02:40:36;96167.16;;;1.91;69.54
15932;BME280;8065;49.520;11.284;2024-01-15T02:43:04;96156.41;;;1.92;69.74
15932;BME280;8065;49.520;11.284;2024-01-15T02:45:32;96155.84;;;1.82;69.81
15932;BME280;8065;49.520;11.284;2024-01-15T02:48:00;96159.91;;;1.88;70.07
15932;BME280;8065;49.520;11.284;2024-01-15T02:50:29;96166.69;;;1.89;70.35
15932;BME280;8065;49.520;11.284;2024-01-15T02:52:57;96170.84;;;1.90;70.18
15932;BME280;8065;49.520;11.284;2024-01-15T02:55:28;96168.13;;;1.95;70.07
15932;BME280;8065;49.520;11.284;2024-01-15T02:57:57;96169.97;;;1.94;69.95
15932;BME280;8065;49.520;11.284;2024-01-15T03:00:25;96175.41;;;1.98;70.13
15932;BME280;8065;49.520;11.284;2024-01-15T03:02:54;96178.50;;;2.00;70.22
15932;BME280;8065;49.520;11.284;2024-01-15T03:05:22;96172.97;;;2.02;70.32
15932;BME280;8065;49.520;11.284;2024-01-15T03:07:51;96169.47;;;2.06;70.38
15932;BME280;8065;49.520;11.284;2024-01-15T03:10:19;96170.94;;;1.98;71.02
15932;BME280;8065;49.520;11.284;2024-01-15T03:12:50;96172.88;;;1.93;71.27
15932;BME280;8065;49.520;11.284;2024-01-15T03:15:18;96162.78;;;2.00;71.08
15932;BME280;8065;49.520;11.284;2024-01-15T03:17:46;96165.59;;;2.04;71.37
15932;BME280;8065;49.520;11.284;2024-01-15T03:20:15;96162.09;;;2.08;71.43
15932;BME280;8065;49.520;11.284;2024-01-15T03:22:43;96151.31;;;2.10;71.18
15932;BME280;8065;49.520;11.284;2024-01-15T03:25:11;96152.09;;;2.10;71.26
15932;BME280;8065;49.520;11.284;2024-01-15T03:27:39;96154.13;;;2.13;71.16
15932;BME280;8065;49.520;11.284;2024-01-15T03:30:12;96152.56;;;2.12;71.53
15932;BME280;8065;49.520;11.284;2024-01-15T03:32:40;96143.22;;;2.20;71.36
15932;BME280;8065;49.520;11.284;2024-01-15T03:35:08;96136.25;;;2.15;71.76
15932;BME280;8065;49.520;11.284;2024-01-15T03:37:36;96133.72;;;2.24;71.28
15932;BME280;8065;49.520;11.284;2024-01-15T03:40:06;96138.09;;;2.15;71.84
15932;BME280;8065;49.520;11.284;2024-01-15T03:42:35;96124.72;;;2.16;71.52
15932;BME280;8065;49.520;11.284;2024-01-15T03:45:04;96134.81;;;2.09;71.79
15932;BME280;8065;49.520;11.284;2024-01-15T03:47:35;96140.53;;;2.11;71.91
15932;BME280;8065;49.520;11.284;2024-01-15T03:50:04;96129.47;;;2.14;72.11
15932;BME280;8065;49.520;11.284;2024-01-15T03:52:33;96125.66;;;2.20;72.09
15932;BME280;8065;49.520;11.284;2024-01-15T03:55:01;96126.44;;;2.21;71.83
15932;BME280;8065;49.520;11.284;2024-01-15T03:57:29;96128.16;;;2.25;72.07
15932;BME280;8065;49.520;11.284;2024-01-15T03:59:57;96129.72;;;2.26;72.06
15932;BME280;8065;49.520;11.284;2024-01-15T04:02:26;96127.88;;;2.27;71.90
15932;BME280;8065;49.520;11.284;2024-01-15T04:04:57;96127.56;;;2.28;72.21
15932;BME280;8065;49.520;11.284;2024-01-15T04:07:25;96118.28;;;2.22;72.47
15932;BME280;8065;49.520;11.284;2024-01-15T04:09:53;96117.88;;;2.29;72.23
15932;BME280;8065;49.520;11.284;2024-01-15T04:12:21;96110.78;;;2.29;72.56
15932;BME280;8065;49.520;11.284;2024-01-15T04:14:50;96115.91;;;2.35;72.60
15932;BME280;8065;49.520;11.284;2024-01-15T04:17:18;96119.00;;;2.37;72.55
15932;BME280;8065;49.520;11.284;2024-01-15T04:19:47;96116.84;;;2.39;72.22
15932;BME280;8065;49.520;11.284;2024-01-15T04:22:18;96107.91;;;2.40;72.48
15932;BME280;8065;49.520;11.284;2024-01-15T04:24:46;96108.56;;;2.45;72.45
15932;BME280;8065;49.520;11.284;2024-01-15T04:27:15;96101.47;;;2.46;72.14
15932;BME280;8065;49.520;11.284;2024-01-15T04:29:43;96104.81;;;2.38;72.66
15932;BME280;8065;49.520;11.284;2024-01-15T04:32:12;96099.75;;;2.41;72.35
15932;BME280;8065;49.520;11.284;2024-01-15T04:34:40;96099.94;;;2.45;72.57
15932;BME280;8065;49.520;11.284;2024-01-15T04:37:09;96103.03;;;2.47;72.27
15932;BME280;8065;49.520;11.284;2024-01-15T04:39:40;96101.84;;;2.53;72.37
15932;BME280;8065;49.520;11.284;2024-01-15T04:42:08;96099.94;;;2.45;72.36
15932;BME280;8065;49.520;11.284;2024-01-15T04:44:36;96097.00;;;2.46;72.36
15932;BME280;8065;49.520;11.284;2024-01-15T04:47:05;96097.78;;;2.47;72.17
15932;BME280;8065;49.520;11.284;2024-01-15T04:49:33;96093.50;;;2.51;72.25
15932;BME280;8065;49.520;11.284;2024-01-15T04:52:01;96094.09;;;2.48;72.20
15932;BME280;8065;49.520;11.284;2024-01-15T04:54:30;96092.78;;;2.37;73.01
15932;BME280;8065;49.520;11.284;2024-01-15T04:57:00;96102.09;;;2.43;72.55
15932;BME280;8065;49.520;11.284;2024-01-15T04:59:29;96101.25;;;2.34;72.94
15932;BME280;8065;49.520;11.284;2024-01-15T05:01:57;96092.19;;;2.40;73.00
15932;BME280;8065;49.520;11.284;2024-01-15T05:04:25;96098.38;;;2.44;72.94
15932;BME280;8065;49.520;11.284;2024-01-15T05:06:55;96087.84;;;2.35;73.22
15932;BME280;8065;49.520;11.284;2024-01-15T05:09:23;96084.69;;;2.47;72.88
15932;BME280;8065;49.520;11.284;2024-01-15T05:11:52;96091.59;;;2.43;73.05
15932;BME280;8065;49.520;11.284;2024-01-15T05:14:22;96085.75;;;2.46;72.97
15932;BME280;8065;49.520;11.284;2024-01-15T05:16:51;96078.84;;;2.50;72.65
15932;BME280;8065;49.520;11.284;2024-01-15T05:19:19;96079.38;;;2.38;72.90
15932;BME280;8065;49.520;11.284;2024-01-15T05:21:47;96084.09;;;2.50;72.67
15932;BME280;8065;49.520;11.284;2024-01-15T05:24:15;96084.56;;;2.52;72.55
15932;BME280;8065;49.520;11.284;2024-01-15T05:26:44;96070.56;;;2.56;72.44
15932;BME280;8065;49.520;11.284;2024-01-15T05:29:12;96075.19;;;2.59;72.57
15932;BME280;8065;49.520;11.284;2024-01-15T05:31:43;96078.13;;;2.58;72.67
15932;BME280;8065;49.520;11.284;2024-01-15T05:34:11;96073.72;;;2.45;73.14
15932;BME280;8065;49.520;11.284;2024-01-15T05:36:39;96072.00;;;2.40;73.33
15932;BME280;8065;49.520;11.284;2024-01-15T05:39:08;96058.34;;;2.52;72.69
15932;BME280;8065;49.520;11.284;2024-01-15T05:41:36;96070.84;;;2.55;72.61
15932;BME280;8065;49.520;11.284;2024-01-15T05:44:04;96071.16;;;2.62;72.83
15932;BME280;8065;49.520;11.284;2024-01-15T05:46:32;96083.97;;;2.55;72.71
15932;BME280;8065;49.520;11.284;2024-01-15T05:49:03;96072.69;;;2.54;72.75
15932;BME280;8065;49.520;11.284;2024-01-15T05:51:31;96063.94;;;2.59;72.52
15932;BME280;8065;49.520;11.284;2024-01-15T05:54:00;96062.22;;;2.63;72.39
15932;BME280;8065;49.520;11.284;2024-01-15T05:56:28;96054.66;;;2.61;72.49
15932;BME280;8065;49.520;11.284;2024-01-15T05:58:56;96053.28;;;2.55;72.53
15932;BME280;8065;49.520;11.284;2024-01-15T06:01:24;96050.19;;;2.62;72.22
15932;BME280;8065;49.520;11.284;2024-01-15T06:03:53;96051.63;;;2.68;72.13
15932;BME280;8065;49.520;11.284;2024-01-15T06:06:24;96056.56;;;2.39;73.27
15932;BME280;8065;49.520;11.284;2024-01-15T06:08:52;96057.56;;;2.51;73.06
15932;BME280;8065;49.520;11.284;2024-01-15T06:11:21;96056.56;;;2.39;73.20
15932;BME280;8065;49.520;11.284;2024-01-15T06:13:49;96064.19;;;2.49;73.29
15932;BME280;8065;49.520;11.284;2024-01-15T06:16:17;96057.16;;;2.58;72.95
15932;BME280;8065;49.520;11.284;2024-01-15T06:18:47;96062.38;;;2.58;73.13
15932;BME280;8065;49.520;11.284;2024-01-15T06:21:15;96051.44;;;2.64;72.97
15932;BME280;8065;49.520;11.284;2024-01-15T06:23:46;96057.75;;;2.55;73.27
15932;BME280;8065;49.520;11.284;2024-01-15T06:26:15;96061.97;;;2.73;73.13
15932;BME280;8065;49.520;11.284;2024-01-15T06:28:43;96067.03;;;2.70;73.43
15932;BME280;8065;49.520;11.284;2024-01-15T06:31:11;96060.56;;;2.67;73.84
15932;BME280;8065;49.520;11.284;2024-01-15T06:33:40;96066.88;;;2.66;74.00
15932;BME280;8065;49.520;11.284;2024-01-15T06:36:08;96061.38;;;2.76;74.04
15932;BME280;8065;49.520;11.284;2024-01-15T06:38:36;96058.31;;;2.83;73.89
15932;BME280;8065;49.520;11.284;2024-01-15T06:41:07;96062.00;;;2.82;73.93
15932;BME280;8065;49.520;11.284;2024-01-15T06:43:36;96057.53;;;2.82;74.25
15932;BME280;8065;49.520;11.284;2024-01-15T06:46:04;96060.47;;;2.81;73.97
15932;BME280;8065;49.520;11.284;2024-01-15T06:48:32;96059.22;;;2.78;74.58
15932;BME280;8065;49.520;11.284;2024-01-15T06:51:00;96062.19;;;2.85;74.30
15932;BME280;8065;49.520;11.284;2024-01-15T06:53:29;96062.47;;;2.84;74.50
15932;BME280;8065;49.520;11.284;2024-01-15T06:55:57;96059.56;;;2.85;74.30
15932;BME280;8065;49.520;11.284;2024-01-15T06:58:28;96062.78;;;2.82;74.26
15932;BME280;8065;49.520;11.284;2024-01-15T07:00:56;96061.72;;;2.83;74.50
15932;BME280;8065;49.520;11.284;2024-01-15T07:03:24;96062.66;;;2.87;74.27
15932;BME280;8065;49.520;11.284;2024-01-15T07:05:53;96057.53;;;2.82;74.28
15932;BME280;8065;49.520;11.284;2024-01-15T07:08:21;96050.75;;;2.81;74.76
15932;BME280;8065;49.520;11.284;2024-01-15T07:10:49;96058.41;;;2.69;75.26
15932;BME280;8065;49.520;11.284;2024-01-15T07:13:17;96063.03;;;2.72;74.83
15932;BME280;8065;49.520;11.284;2024-01-15T07:15:48;96061.22;;;2.81;74.86
15932;BME280;8065;49.520;11.284;2024-01-15T07:18:17;96060.75;;;2.79;74.75
15932;BME280;8065;49.520;11.284;2024-01-15T07:20:45;96066.34;;;2.86;74.76
15932;BME280;8065;49.520;11.284;2024-01-15T07:23:13;96064.94;;;2.80;75.10
15932;BME280;8065;49.520;11.284;2024-01-15T07:25:42;96063.25;;;2.84;75.32
15932;BME280;8065;49.520;11.284;2024-01-15T07:28:11;96063.84;;;2.81;75.24
15932;BME280;8065;49.520;11.284;2024-01-15T07:30:39;96058.47;;;2.86;74.87
15932;BME280;8065;49.520;11.284;2024-01-15T07:33:10;96073.13;;;2.87;75.27
15932;BME280;8065;49.520;11.284;2024-01-15T07:35:38;96072.06;;;2.88;75.23
15932;BME280;8065;49.520;11.284;2024-01-15T07:38:07;96075.03;;;2.95;75.44
15932;BME280;8065;49.520;11.284;2024-01-15T07:40:37;96077.31;;;2.88;75.31
15932;BME280;8065;49.520;11.284;2024-01-15T07:43:05;96085.03;;;2.93;75.44
15932;BME280;8065;49.520;11.284;2024-01-15T07:45:33;96076.09;;;2.94;75.14
15932;BME280;8065;49.520;11.284;2024-01-15T07:48:02;96080.13;;;3.01;75.25
15932;BME280;8065;49.520;11.284;2024-01-15T07:50:33;96083.50;;;2.92;75.10
15932;BME280;8065;49.520;11.284;2024-01-15T07:53:01;96080.13;;;3.01;74.70
15932;BME280;8065;49.520;11.284;2024-01-15T07:55:30;96075.50;;;2.97;74.56
15932;BME280;8065;49.520;11.284;2024-01-15T07:57:59;96090.63;;;3.01;74.70
15932;BME280;8065;49.520;11.284;2024-01-15T08:00:27;96078.72;;;2.94;74.74
15932;BME280;8065;49.520;11.284;2024-01-15T08:02:55;96081.69;;;3.02;74.56
15932;BME280;8065;49.520;11.284;2024-01-15T08:05:23;96074.59;;;3.02;74.66
15932;BME280;8065;49.520;11.284;2024-01-15T08:07:54;96083.41;;;3.06;74.68
15932;BME280;8065;49.520;11.284;2024-01-15T08:10:23;96089.25;;;3.03;74.62
15932;BME280;8065;49.520;11.284;2024-01-15T08:12:51;96076.78;;;3.09;74.34
15932;BME280;8065;49.520;11.284;2024-01-15T08:15:19;96072.75;;;3.03;74.36
15932;BME280;8065;49.520;11.284;2024-01-15T08:17:48;96067.53;;;3.11;74.47
15932;BME280;8065;49.520;11.284;2024-01-15T08:20:16;96074.78;;;3.14;74.25
15932;BME280;8065;49.520;11.284;2024-01-15T08:22:44;96086.06;;;3.15;74.70
15932;BME280;8065;49.520;11.284;2024-01-15T08:25:16;96088.53;;;3.20;74.59
15932;BME280;8065;49.520;11.284;2024-01-15T08:27:44;96076.34;;;3.24;74.97
15932;BME280;8065;49.520;11.284;2024-01-15T08:30:13;96083.91;;;3.17;75.03
15932;BME280;8065;49.520;11.284;2024-01-15T08:32:42;96073.41;;;3.17;75.13
15932;BME280;8065;49.520;11.284;2024-01-15T08:35:10;96073.72;;;3.24;74.80
15932;BME280;8065;49.520;11.284;2024-01-15T08:37:39;96071.91;;;3.33;74.82
15932;BME280;8065;49.520;11.284;2024-01-15T08:40:08;96078.94;;;3.15;75.43
15932;BME280;8065;49.520;11.284;2024-01-15T08:42:39;96077.13;;;3.24;75.27
15932;BME280;8065;49.520;11.284;2024-01-15T08:45:08;96074.06;;;3.31;75.01
15932;BME280;8065;49.520;11.284;2024-01-15T08:47:37;96070.34;;;3.32;74.86
15932;BME280;8065;49.520;11.284;2024-01-15T08:50:06;96066.81;;;3.37;74.76
15932;BME280;8065;49.520;11.284;2024-01-15T08:52:36;96074.06;;;3.31;74.57
15932;BME280;8065;49.520;11.284;2024-01-15T08:55:05;96079.47;;;3.35;74.67
15932;BME280;8065;49.520;11.284;2024-01-15T08:57:33;96069.13;;;3.38;74.36
15932;BME280;8065;49.520;11.284;2024-01-15T09:00:06;96076.88;;;3.43;74.58
15932;BME280;8065;49.520;11.284;2024-01-15T09:02:34;96071.47;;;3.40;74.27
15932;BME280;8065;49.520;11.284;2024-01-15T09:05:03;96077.63;;;3.44;73.93
15932;BME280;8065;49.520;11.284;2024-01-15T09:07:32;96075.31;;;3.42;74.58
15932;BME280;8065;49.520;11.284;2024-01-15T09:10:00;96076.09;;;3.43;74.40
15932;BME280;8065;49.520;11.284;2024-01-15T09:12:28;96074.69;;;3.54;74.10
15932;BME280;8065;49.520;11.284;2024-01-15T09:14:57;96067.13;;;3.52;74.00
15932;BME280;8065;49.520;11.284;2024-01-15T09:17:27;96058.94;;;3.62;73.88
15932;BME280;8065;49.520;11.284;2024-01-15T09:19:56;96059.88;;;3.67;73.58
15932;BME280;8065;49.520;11.284;2024-01-15T09:22:24;96073.63;;;3.63;74.00
15932;BME280;8065;49.520;11.284;2024-01-15T09:24:53;96065.13;;;3.67;73.92
15932;BME280;8065;49.520;11.284;2024-01-15T09:27:21;96061.44;;;3.68;74.04
15932;BME280;8065;49.520;11.284;2024-01-15T09:29:51;96060.97;;;3.74;74.25
15932;BME280;8065;49.520;11.284;2024-01-15T09:32:19;96068.22;;;3.69;74.61
15932;BME280;8065;49.520;11.284;2024-01-15T09:34:50;96078.72;;;3.69;74.64
15932;BME280;8065;49.520;11.284;2024-01-15T09:37:19;96073.78;;;3.76;74.59
15932;BME280;8065;49.520;11.284;2024-01-15T09:39:47;96069.31;;;3.76;74.99
15932;BME280;8065;49.520;11.284;2024-01-15T09:42:16;96076.41;;;3.76;74.85
15932;BME280;8065;49.520;11.284;2024-01-15T09:44:44;96074.25;;;3.78;75.16
15932;BME280;8065;49.520;11.284;2024-01-15T09:47:14;96081.53;;;3.89;74.94
15932;BME280;8065;49.520;11.284;2024-01-15T09:49:43;96085.69;;;3.65;75.49
15932;BME280;8065;49.520;11.284;2024-01-15T09:52:14;96079.19;;;3.71;75.19
15932;BME280;8065;49.520;11.284;2024-01-15T09:54:45;96075.66;;;3.75;75.30
15932;BME280;8065;49.520;11.284;2024-01-15T09:57:14;96079.38;;;3.83;74.91
15932;BME280;8065;49.520;11.284;2024-01-15T09:59:43;96075.97;;;3.74;75.15
15932;BME280;8065;49.520;11.284;2024-01-15T10:02:13;96072.25;;;3.75;75.10
15932;BME280;8065;49.520;11.284;2024-01-15T10:04:44;96075.34;;;3.77;75.14
15932;BME280;8065;49.520;11.284;2024-01-15T10:07:16;96069.78;;;3.87;74.74
15932;BME280;8065;49.520;11.284;2024-01-15T10:09:44;96073.66;;;3.89;75.44
15932;BME280;8065;49.520;11.284;2024-01-15T10:12:14;96062.69;;;3.96;74.80
15932;BME280;8065;49.520;11.284;2024-01-15T10:14:42;96067.31;;;3.99;75.15
15932;BME280;8065;49.520;11.284;2024-01-15T10:17:14;96065.16;;;4.01;74.87
15932;BME280;8065;49.520;11.284;2024-01-15T10:19:43;96056.66;;;4.04;75.03
15932;BME280;8065;49.520;11.284;2024-01-15T10:22:16;96055.88;;;4.12;74.62
15932;BME280;8065;49.520;11.284;2024-01-15T10:24:44;96058.03;;;4.10;74.83
15932;BME280;8065;49.520;11.284;2024-01-15T10:27:13;96052.00;;;4.10;74.49
15932;BME280;8065;49.520;11.284;2024-01-15T10:29:41;96054.63;;;4.01;74.61
15932;BME280;8065;49.520;11.284;2024-01-15T10:32:11;96048.75;;;4.04;74.43
15932;BME280;8065;49.520;11.284;2024-01-15T10:34:40;96053.41;;;4.07;74.57
15932;BME280;8065;49.520;11.284;2024-01-15T10:37:09;96049.84;;;4.03;74.62
15932;BME280;8065;49.520;11.284;2024-01-15T10:39:40;96045.97;;;4.09;74.58
15932;BME280;8065;49.520;11.284;2024-01-15T10:42:08;96035.47;;;4.09;74.45
15932;BME280;8065;49.520;11.284;2024-01-15T10:44:36;96040.72;;;4.09;74.07
15932;BME280;8065;49.520;11.284;2024-01-15T10:47:05;96029.75;;;4.07;74.27
15932;BME280;8065;49.520;11.284;2024-01-15T10:49:34;96023.41;;;4.08;74.07
15932;BME280;8065;49.520;11.284;2024-01-15T10:52:03;96021.38;;;4.14;74.12
15932;BME280;8065;49.520;11.284;2024-01-15T10:54:31;96019.22;;;4.16;73.84
15932;BME280;8065;49.520;11.284;2024-01-15T10:57:03;96018.00;;;4.13;73.90
15932;BME280;8065;49.520;11.284;2024-01-15T10:59:32;96014.44;;;4.18;73.61
15932;BME280;8065;49.520;11.284;2024-01-15T11:02:01;96010.72;;;4.10;73.48
15932;BME280;8065;49.520;11.284;2024-01-15T11:04:31;96017.53;;;4.11;73.45
15932;BME280;8065;49.520;11.284;2024-01-15T11:07:01;96009.81;;;4.06;73.77
15932;BME280;8065;49.520;11.284;2024-01-15T11:09:30;96016.13;;;4.14;73.24
15932;BME280;8065;49.520;11.284;2024-01-15T11:12:10;96011.19;;;4.12;73.67
15932;BME280;8065;49.520;11.284;2024-01-15T11:14:39;96018.00;;;4.13;73.76
15932;BME280;8065;49.520;11.284;2024-01-15T11:17:09;96012.91;;;4.08;73.51
15932;BME280;8065;49.520;11.284;2024-01-15T11:19:38;96014.44;;;4.09;73.68
15932;BME280;8065;49.520;11.284;2024-01-15T11:25:14;96005.63;;;4.14;73.50
15932;BME280;8065;49.520;11.284;2024-01-15T11:27:47;96006.41;;;4.14;73.56
15932;BME280;8065;49.520;11.284;2024-01-15T11:30:18;96005.91;;;4.21;73.63
15932;BME280;8065;49.520;11.284;2024-01-15T11:32:46;96004.69;;;4.18;73.61
15932;BME280;8065;49.520;11.284;2024-01-15T11:35:14;96013.50;;;4.22;73.61
15932;BME280;8065;49.520;11.284;2024-01-15T11:37:56;95993.25;;;4.14;74.18
15932;BME280;8065;49.520;11.284;2024-01-15T11:40:47;95990.16;;;4.21;73.85
15932;BME280;8065;49.520;11.284;2024-01-15T11:43:18;95985.81;;;4.25;73.88
15932;BME280;8065;49.520;11.284;2024-01-15T11:45:51;95987.34;;;4.26;73.96
15932;BME280;8065;49.520;11.284;2024-01-15T11:48:20;95986.56;;;4.25;73.80
15932;BME280;8065;49.520;11.284;2024-01-15T11:50:50;95990.91;;;4.21;73.71
15932;BME280;8065;49.520;11.284;2024-01-15T11:53:27;95992.75;;;4.30;73.39
15932;BME280;8065;49.520;11.284;2024-01-15T11:56:02;95996.41;;;4.37;73.60
15932;BME280;8065;49.520;11.284;2024-01-15T11:58:34;95991.16;;;4.37;73.36
15932;BME280;8065;49.520;11.284;2024-01-15T12:01:03;95991.94;;;4.38;73.65
15932;BME280;8065;49.520;11.284;2024-01-15T12:03:32;95984.66;;;4.35;73.53
15932;BME280;8065;49.520;11.284;2024-01-15T12:06:01;95987.50;;;4.30;73.43
15932;BME280;8065;49.520;11.284;2024-01-15T12:08:29;95984.25;;;4.33;73.58
15932;BME280;8065;49.520;11.284;2024-01-15T12:10:57;95990.59;;;4.32;73.71
15932;BME280;8065;49.520;11.284;2024-01-15T12:13:27;95980.84;;;4.32;73.99
15932;BME280;8065;49.520;11.284;2024-01-15T12:15:57;95981.78;;;4.27;73.81
15932;BME280;8065;49.520;11.284;2024-01-15T12:18:29;95989.81;;;4.31;73.91
15932;BME280;8065;49.520;11.284;2024-01-15T12:20:58;95985.31;;;4.32;73.86
15932;BME280;8065;49.520;11.284;2024-01-15T12:23:26;95983.13;;;4.34;73.56
15932;BME280;8065;49.520;11.284;2024-01-15T12:25:55;95975.97;;;4.05;74.32
15932;BME280;8065;49.520;11.284;2024-01-15T12:28:23;95975.47;;;4.20;74.24
15932;BME280;8065;49.520;11.284;2024-01-15T12:30:52;95969.13;;;4.21;74.16
15932;BME280;8065;49.520;11.284;2024-01-15T12:33:23;95977.47;;;4.23;73.92
15932;BME280;8065;49.520;11.284;2024-01-15T12:35:52;95963.38;;;4.27;74.04
15932;BME280;8065;49.520;11.284;2024-01-15T12:38:21;95978.84;;;4.20;74.09
15932;BME280;8065;49.520;11.284;2024-01-15T12:40:49;95986.28;;;4.18;74.28
15932;BME280;8065;49.520;11.284;2024-01-15T12:43:17;95989.66;;;4.27;73.87
15932;BME280;8065;49.520;11.284;2024-01-15T12:45:46;95985.06;;;4.07;74.48
15932;BME280;8065;49.520;11.284;2024-01-15T12:48:14;95988.03;;;3.97;74.69
15932;BME280;8065;49.520;11.284;2024-01-15T12:50:47;95979.97;;;4.11;74.49
15932;BME280;8065;49.520;11.284;2024-01-15T12:53:15;95977.78;;;4.13;74.61
15932;BME280;8065;49.520;11.284;2024-01-15T12:55:46;95975.78;;;4.18;74.28
15932;BME280;8065;49.520;11.284;2024-01-15T12:58:15;95964.91;;;4.28;73.92
15932;BME280;8065;49.520;11.284;2024-01-15T13:00:43;95974.16;;;4.35;73.85
15932;BME280;8065;49.520;11.284;2024-01-15T13:03:13;95967.69;;;4.32;73.65
15932;BME280;8065;49.520;11.284;2024-01-15T13:05:41;95968.34;;;4.20;73.99
15932;BME280;8065;49.520;11.284;2024-01-15T13:08:13;95970.94;;;4.29;73.75
15932;BME280;8065;49.520;11.284;2024-01-15T13:10:41;95967.56;;;4.28;73.69
15932;BME280;8065;49.520;11.284;2024-01-15T13:13:10;95966.59;;;4.33;73.53
15932;BME280;8065;49.520;11.284;2024-01-15T13:15:38;95964.28;;;4.32;73.79
15932;BME280;8065;49.520;11.284;2024-01-15T13:18:07;95969.19;;;4.42;73.71
15932;BME280;8065;49.520;11.284;2024-01-15T13:20:35;95974.59;;;4.45;73.36
15932;BME280;8065;49.520;11.284;2024-01-15T13:23:03;95974.72;;;4.49;73.69